aviador You're here:

KOFP Decoded Metar

RICHMOND/HANOVER in VA, USA
Report Time2017-06-27 04:54:00
UTC Time2017-06-27 05:14:18
Flight Rules vfr VFR
WindCalm
Visibility9999 m
Phenomena:N/A
Clouds:N/A
Expected CloudBase > 1,600 ft AGL from Temp-Dew spread
CeilingNone
Temp17°C (ISA +2)
Dew Point13°C (77% RH)
QNH1017 hPa
Density Alt551 ft
Elevation203 ft
Report Wrong Elevation
Raw Report
KOFP 270454Z AUTO 00000KT 10SM CLR 17/13 A3002 RMK AO2 SLP164
T01670133 402830133=

Extra information for KOFP:More info

Metar Taf Metar & Taf Last 4 Metars F.Rules Stats Wind Profile Meteogram Temp Stats Airport Information Weather charts Add Link Nearby VenuesMetar ALERT Operation Metar Decoded Social comments

AIRNAV info for KOFP